EDV5176 KBTV-KJFK
Flight info
| Callsign | EDV5176 |
|---|---|
| Flight time | 0h 53m |
| Altitude | 32000 |
| Route | DENYU PONCT PUCKY1 |
| Aircraft | CRJ9/M-SDFGIRWY/S |
Departure
| Time | 2026-05-06 11:23 |
|---|---|
| Airport | Patrick Leahy Burlington International Airport (KBTV) |
Arrival
| Time | 2026-05-06 12:16 |
|---|---|
| Airport | John F. Kennedy International Airport (KJFK) |
| Time | Latitude | Longitude | Altitude | Speed | Heading |
|---|---|---|---|---|---|
| 2026-05-06 10:53 | 44.46890 | -73.15406 | 339 ft | 0 kts | 265° |
| 2026-05-06 11:09 | 44.46892 | -73.15378 | 336 ft | 4 kts | 265° |
| 2026-05-06 11:10 | 44.46894 | -73.15341 | 340 ft | 4 kts | 265° |
| 2026-05-06 11:10 | 44.46896 | -73.15303 | 340 ft | 4 kts | 265° |
| 2026-05-06 11:10 | 44.46897 | -73.15281 | 340 ft | 0 kts | 265° |
| 2026-05-06 11:14 | 44.46897 | -73.15282 | 340 ft | 0 kts | 265° |
| 2026-05-06 11:14 | 44.46896 | -73.15294 | 340 ft | 4 kts | 258° |
| 2026-05-06 11:14 | 44.46871 | -73.15320 | 340 ft | 6 kts | 180° |
| 2026-05-06 11:15 | 44.46811 | -73.15306 | 336 ft | 12 kts | 171° |
| 2026-05-06 11:15 | 44.46708 | -73.15284 | 338 ft | 18 kts | 171° |
| 2026-05-06 11:15 | 44.46599 | -73.15233 | 340 ft | 9 kts | 119° |
| 2026-05-06 11:15 | 44.46592 | -73.15152 | 338 ft | 8 kts | 87° |
| 2026-05-06 11:16 | 44.46595 | -73.15071 | 340 ft | 8 kts | 87° |
| 2026-05-06 11:16 | 44.46597 | -73.14992 | 337 ft | 8 kts | 90° |
| 2026-05-06 11:16 | 44.46598 | -73.14920 | 341 ft | 7 kts | 88° |
| 2026-05-06 11:16 | 44.46599 | -73.14853 | 348 ft | 7 kts | 88° |
| 2026-05-06 11:17 | 44.46601 | -73.14787 | 342 ft | 7 kts | 88° |
| 2026-05-06 11:17 | 44.46602 | -73.14741 | 343 ft | 7 kts | 88° |
| 2026-05-06 11:17 | 44.46603 | -73.14674 | 344 ft | 7 kts | 88° |
| 2026-05-06 11:17 | 44.46605 | -73.14603 | 354 ft | 7 kts | 88° |
| 2026-05-06 11:18 | 44.46605 | -73.14533 | 346 ft | 7 kts | 96° |
| 2026-05-06 11:18 | 44.46575 | -73.14468 | 348 ft | 9 kts | 130° |
| 2026-05-06 11:18 | 44.46528 | -73.14390 | 348 ft | 11 kts | 130° |
| 2026-05-06 11:18 | 44.46476 | -73.14305 | 348 ft | 12 kts | 130° |
| 2026-05-06 11:19 | 44.46413 | -73.14202 | 336 ft | 16 kts | 130° |
| 2026-05-06 11:19 | 44.46368 | -73.14139 | 338 ft | 0 kts | 90° |
| 2026-05-06 11:19 | 44.46370 | -73.14135 | 339 ft | 1 kts | 40° |
| 2026-05-06 11:19 | 44.46374 | -73.14135 | 335 ft | 3 kts | 339° |
| 2026-05-06 11:20 | 44.46397 | -73.14166 | 338 ft | 5 kts | 310° |
| 2026-05-06 11:20 | 44.46412 | -73.14194 | 336 ft | 6 kts | 307° |
| 2026-05-06 11:20 | 44.46443 | -73.14250 | 350 ft | 8 kts | 308° |
| 2026-05-06 11:20 | 44.46492 | -73.14287 | 352 ft | 8 kts | 22° |
| 2026-05-06 11:21 | 44.46525 | -73.14252 | 348 ft | 4 kts | 41° |
| 2026-05-06 11:21 | 44.46550 | -73.14222 | 348 ft | 5 kts | 40° |
| 2026-05-06 11:21 | 44.46580 | -73.14194 | 348 ft | 2 kts | 357° |
| 2026-05-06 11:21 | 44.46597 | -73.14214 | 354 ft | 8 kts | 312° |
| 2026-05-06 11:22 | 44.46747 | -73.14449 | 354 ft | 64 kts | 311° |
| 2026-05-06 11:22 | 44.47176 | -73.15143 | 352 ft | 121 kts | 310° |
| 2026-05-06 11:22 | 44.47835 | -73.16198 | 367 ft | 163 kts | 311° |
| 2026-05-06 11:22 | 44.48606 | -73.17440 | 893 ft | 169 kts | 314° |
| 2026-05-06 11:23 | 44.49347 | -73.18661 | 1800 ft | 160 kts | 312° |
| 2026-05-06 11:23 | 44.50085 | -73.19884 | 2278 ft | 177 kts | 313° |
| 2026-05-06 11:23 | 44.50942 | -73.21263 | 2599 ft | 197 kts | 314° |
| 2026-05-06 11:23 | 44.51873 | -73.22763 | 3021 ft | 211 kts | 313° |
| 2026-05-06 11:24 | 44.52891 | -73.24336 | 3531 ft | 223 kts | 313° |
| 2026-05-06 11:24 | 44.54005 | -73.25979 | 4072 ft | 242 kts | 311° |
| 2026-05-06 11:24 | 44.54868 | -73.28036 | 4591 ft | 253 kts | 279° |
| 2026-05-06 11:24 | 44.54685 | -73.30473 | 5243 ft | 256 kts | 242° |
| 2026-05-06 11:25 | 44.53553 | -73.32318 | 6258 ft | 247 kts | 219° |
| 2026-05-06 11:25 | 44.52253 | -73.33864 | 7259 ft | 243 kts | 218° |
| 2026-05-06 11:25 | 44.50941 | -73.35357 | 8193 ft | 243 kts | 218° |
| 2026-05-06 11:25 | 44.49605 | -73.36810 | 9116 ft | 245 kts | 217° |
| 2026-05-06 11:26 | 44.48159 | -73.38172 | 9818 ft | 250 kts | 211° |
| 2026-05-06 11:26 | 44.46660 | -73.39330 | 10804 ft | 246 kts | 210° |
| 2026-05-06 11:26 | 44.45128 | -73.40485 | 11385 ft | 259 kts | 210° |
| 2026-05-06 11:26 | 44.43499 | -73.41757 | 11722 ft | 277 kts | 211° |
| 2026-05-06 11:27 | 44.41781 | -73.43139 | 12160 ft | 292 kts | 212° |
| 2026-05-06 11:27 | 44.39992 | -73.44602 | 12743 ft | 301 kts | 212° |
| 2026-05-06 11:27 | 44.38176 | -73.46090 | 13542 ft | 305 kts | 213° |
| 2026-05-06 11:27 | 44.36339 | -73.47593 | 14252 ft | 305 kts | 213° |
| 2026-05-06 11:28 | 44.34502 | -73.49098 | 14965 ft | 308 kts | 213° |
| 2026-05-06 11:28 | 44.32645 | -73.50627 | 15612 ft | 312 kts | 213° |
| 2026-05-06 11:28 | 44.30764 | -73.52166 | 16258 ft | 315 kts | 213° |
| 2026-05-06 11:28 | 44.28860 | -73.53722 | 16892 ft | 319 kts | 213° |
| 2026-05-06 11:29 | 44.26935 | -73.55298 | 17518 ft | 323 kts | 213° |
| 2026-05-06 11:29 | 44.24990 | -73.56892 | 18137 ft | 326 kts | 213° |
| 2026-05-06 11:29 | 44.23022 | -73.58498 | 18668 ft | 329 kts | 213° |
| 2026-05-06 11:29 | 44.21032 | -73.60124 | 19207 ft | 332 kts | 213° |
| 2026-05-06 11:30 | 44.19037 | -73.61751 | 19718 ft | 334 kts | 213° |
| 2026-05-06 11:30 | 44.17014 | -73.63402 | 20212 ft | 338 kts | 214° |
| 2026-05-06 11:30 | 44.14979 | -73.65056 | 20711 ft | 340 kts | 214° |
| 2026-05-06 11:30 | 44.12937 | -73.66724 | 21172 ft | 343 kts | 214° |
| 2026-05-06 11:31 | 44.10865 | -73.68406 | 21681 ft | 345 kts | 214° |
| 2026-05-06 11:31 | 44.08791 | -73.70091 | 22128 ft | 348 kts | 214° |
| 2026-05-06 11:31 | 44.06685 | -73.71800 | 22559 ft | 351 kts | 214° |
| 2026-05-06 11:31 | 44.04577 | -73.73511 | 23000 ft | 353 kts | 214° |
| 2026-05-06 11:32 | 44.02291 | -73.74870 | 23375 ft | 365 kts | 199° |
| 2026-05-06 11:32 | 43.99788 | -73.75602 | 23717 ft | 370 kts | 197° |
| 2026-05-06 11:32 | 43.97248 | -73.76263 | 24063 ft | 373 kts | 197° |
| 2026-05-06 11:32 | 43.94698 | -73.76924 | 24410 ft | 375 kts | 198° |
| 2026-05-06 11:33 | 43.92148 | -73.77691 | 24782 ft | 375 kts | 199° |
| 2026-05-06 11:33 | 43.89592 | -73.78520 | 25107 ft | 377 kts | 200° |
| 2026-05-06 11:33 | 43.87031 | -73.79368 | 25415 ft | 380 kts | 200° |
| 2026-05-06 11:33 | 43.84459 | -73.80238 | 25770 ft | 381 kts | 201° |
| 2026-05-06 11:34 | 43.81879 | -73.81131 | 26037 ft | 383 kts | 201° |
| 2026-05-06 11:34 | 43.79297 | -73.82050 | 26332 ft | 385 kts | 201° |
| 2026-05-06 11:34 | 43.76698 | -73.83018 | 26606 ft | 387 kts | 202° |
| 2026-05-06 11:34 | 43.74116 | -73.84036 | 26922 ft | 387 kts | 204° |
| 2026-05-06 11:35 | 43.71564 | -73.85210 | 27202 ft | 388 kts | 205° |
| 2026-05-06 11:35 | 43.68845 | -73.85773 | 27458 ft | 408 kts | 186° |
| 2026-05-06 11:35 | 43.65973 | -73.85172 | 27727 ft | 421 kts | 177° |
| 2026-05-06 11:35 | 43.63103 | -73.84403 | 27955 ft | 421 kts | 179° |
| 2026-05-06 11:36 | 43.60202 | -73.83901 | 28203 ft | 417 kts | 185° |
| 2026-05-06 11:36 | 43.57277 | -73.83752 | 28462 ft | 414 kts | 188° |
| 2026-05-06 11:36 | 43.54430 | -73.83747 | 28701 ft | 416 kts | 188° |
| 2026-05-06 11:36 | 43.51530 | -73.83726 | 28932 ft | 418 kts | 188° |
| 2026-05-06 11:37 | 43.48615 | -73.83680 | 29156 ft | 420 kts | 188° |
| 2026-05-06 11:37 | 43.45684 | -73.83590 | 29362 ft | 422 kts | 187° |
| 2026-05-06 11:37 | 43.42737 | -73.83486 | 29565 ft | 425 kts | 187° |
| 2026-05-06 11:37 | 43.39737 | -73.83368 | 29788 ft | 427 kts | 187° |
| 2026-05-06 11:38 | 43.36805 | -73.83248 | 29975 ft | 428 kts | 187° |
| 2026-05-06 11:38 | 43.33823 | -73.83148 | 30151 ft | 429 kts | 187° |
| 2026-05-06 11:38 | 43.30835 | -73.83056 | 30324 ft | 430 kts | 187° |
| 2026-05-06 11:38 | 43.27839 | -73.82961 | 30510 ft | 431 kts | 187° |
| 2026-05-06 11:39 | 43.24834 | -73.82866 | 30638 ft | 433 kts | 187° |
| 2026-05-06 11:39 | 43.21816 | -73.82768 | 30804 ft | 434 kts | 187° |
| 2026-05-06 11:39 | 43.18757 | -73.82670 | 30964 ft | 436 kts | 187° |
| 2026-05-06 11:39 | 43.15714 | -73.82574 | 31128 ft | 437 kts | 187° |
| 2026-05-06 11:40 | 43.12673 | -73.82479 | 31286 ft | 438 kts | 187° |
| 2026-05-06 11:40 | 43.09624 | -73.82381 | 31433 ft | 439 kts | 187° |
| 2026-05-06 11:40 | 43.06615 | -73.82277 | 31628 ft | 438 kts | 187° |
| 2026-05-06 11:40 | 43.03561 | -73.82177 | 31741 ft | 440 kts | 187° |
| 2026-05-06 11:41 | 43.00448 | -73.82079 | 31791 ft | 443 kts | 187° |
| 2026-05-06 11:41 | 42.94274 | -73.81894 | 31823 ft | 450 kts | 187° |
| 2026-05-06 11:42 | 42.87970 | -73.81719 | 31825 ft | 456 kts | 187° |
| 2026-05-06 11:42 | 42.81602 | -73.81570 | 31844 ft | 461 kts | 187° |
| 2026-05-06 11:43 | 42.75156 | -73.81437 | 31853 ft | 465 kts | 187° |
| 2026-05-06 11:43 | 42.68679 | -73.81314 | 31857 ft | 465 kts | 187° |
| 2026-05-06 11:44 | 42.59055 | -73.81264 | 31835 ft | 458 kts | 188° |
| 2026-05-06 11:44 | 42.52692 | -73.81381 | 31844 ft | 455 kts | 188° |
| 2026-05-06 11:45 | 42.46380 | -73.81459 | 31783 ft | 454 kts | 188° |
| 2026-05-06 11:45 | 42.40074 | -73.81459 | 31804 ft | 452 kts | 188° |
| 2026-05-06 11:46 | 42.33802 | -73.81486 | 31813 ft | 451 kts | 188° |
| 2026-05-06 11:46 | 42.27675 | -73.82284 | 31813 ft | 431 kts | 206° |
| 2026-05-06 11:47 | 42.22162 | -73.85162 | 31812 ft | 435 kts | 198° |
| 2026-05-06 11:47 | 42.19086 | -73.85452 | 31824 ft | 451 kts | 185° |
| 2026-05-06 11:47 | 42.15947 | -73.84735 | 31835 ft | 466 kts | 172° |
| 2026-05-06 11:48 | 42.12907 | -73.83047 | 31832 ft | 481 kts | 158° |
| 2026-05-06 11:48 | 42.10119 | -73.80488 | 31843 ft | 490 kts | 150° |
| 2026-05-06 11:48 | 42.07274 | -73.78076 | 31823 ft | 477 kts | 163° |
| 2026-05-06 11:48 | 42.04206 | -73.76601 | 31809 ft | 461 kts | 176° |
| 2026-05-06 11:49 | 42.01079 | -73.76088 | 31820 ft | 446 kts | 188° |
| 2026-05-06 11:49 | 41.98047 | -73.76528 | 31826 ft | 431 kts | 202° |
| 2026-05-06 11:49 | 41.92453 | -73.79074 | 31839 ft | 422 kts | 210° |
| 2026-05-06 11:50 | 41.87084 | -73.82216 | 31838 ft | 421 kts | 211° |
| 2026-05-06 11:50 | 41.81635 | -73.85171 | 31838 ft | 425 kts | 208° |
| 2026-05-06 11:51 | 41.78862 | -73.86582 | 31461 ft | 429 kts | 208° |
| 2026-05-06 11:51 | 41.76111 | -73.88006 | 30732 ft | 420 kts | 208° |
| 2026-05-06 11:51 | 41.73404 | -73.89415 | 30012 ft | 413 kts | 208° |
| 2026-05-06 11:51 | 41.70753 | -73.90787 | 29195 ft | 407 kts | 208° |
| 2026-05-06 11:52 | 41.68131 | -73.92142 | 28381 ft | 401 kts | 208° |
| 2026-05-06 11:52 | 41.65535 | -73.93483 | 27596 ft | 396 kts | 208° |
| 2026-05-06 11:52 | 41.62984 | -73.94800 | 26836 ft | 392 kts | 208° |
| 2026-05-06 11:52 | 41.60455 | -73.96107 | 26088 ft | 388 kts | 208° |
| 2026-05-06 11:53 | 41.57950 | -73.97396 | 25366 ft | 384 kts | 208° |
| 2026-05-06 11:53 | 41.55468 | -73.98674 | 24652 ft | 382 kts | 208° |
| 2026-05-06 11:53 | 41.52992 | -73.99951 | 23993 ft | 380 kts | 208° |
| 2026-05-06 11:53 | 41.50533 | -74.01211 | 23370 ft | 377 kts | 208° |
| 2026-05-06 11:54 | 41.48095 | -74.02462 | 22596 ft | 375 kts | 207° |
| 2026-05-06 11:54 | 41.45669 | -74.03712 | 21870 ft | 373 kts | 207° |
| 2026-05-06 11:54 | 41.43254 | -74.04953 | 21168 ft | 371 kts | 207° |
| 2026-05-06 11:54 | 41.40846 | -74.06188 | 20507 ft | 369 kts | 206° |
| 2026-05-06 11:55 | 41.38484 | -74.07394 | 20139 ft | 359 kts | 206° |
| 2026-05-06 11:55 | 41.36266 | -74.08729 | 19974 ft | 342 kts | 212° |
| 2026-05-06 11:55 | 41.34176 | -74.10219 | 19895 ft | 339 kts | 214° |
| 2026-05-06 11:55 | 41.32138 | -74.11795 | 19879 ft | 338 kts | 215° |
| 2026-05-06 11:56 | 41.30141 | -74.13440 | 19864 ft | 337 kts | 217° |
| 2026-05-06 11:56 | 41.28181 | -74.15139 | 19843 ft | 336 kts | 217° |
| 2026-05-06 11:56 | 41.26233 | -74.16840 | 19852 ft | 335 kts | 217° |
| 2026-05-06 11:56 | 41.24289 | -74.18534 | 19854 ft | 334 kts | 217° |
| 2026-05-06 11:57 | 41.23005 | -74.19656 | 19860 ft | 333 kts | 216° |
| 2026-05-06 11:57 | 41.21037 | -74.21347 | 19860 ft | 332 kts | 216° |
| 2026-05-06 11:57 | 41.19117 | -74.22980 | 19864 ft | 332 kts | 216° |
| 2026-05-06 11:57 | 41.17176 | -74.24634 | 19871 ft | 331 kts | 216° |
| 2026-05-06 11:58 | 41.15238 | -74.26283 | 19868 ft | 331 kts | 216° |
| 2026-05-06 11:58 | 41.13300 | -74.27928 | 19874 ft | 330 kts | 216° |
| 2026-05-06 11:58 | 41.11366 | -74.29570 | 19860 ft | 330 kts | 216° |
| 2026-05-06 11:58 | 41.09432 | -74.31201 | 19868 ft | 330 kts | 213° |
| 2026-05-06 11:59 | 41.07221 | -74.32123 | 19745 ft | 345 kts | 187° |
| 2026-05-06 11:59 | 41.04812 | -74.31544 | 19681 ft | 363 kts | 166° |
| 2026-05-06 11:59 | 41.02521 | -74.30179 | 19603 ft | 358 kts | 160° |
| 2026-05-06 11:59 | 41.00335 | -74.28645 | 19496 ft | 353 kts | 158° |
| 2026-05-06 12:00 | 40.98233 | -74.26999 | 19386 ft | 349 kts | 155° |
| 2026-05-06 12:00 | 40.96336 | -74.24975 | 19254 ft | 358 kts | 135° |
| 2026-05-06 12:00 | 40.95018 | -74.22155 | 19150 ft | 361 kts | 124° |
| 2026-05-06 12:00 | 40.93862 | -74.19227 | 19046 ft | 357 kts | 124° |
| 2026-05-06 12:01 | 40.92696 | -74.16377 | 18956 ft | 351 kts | 126° |
| 2026-05-06 12:01 | 40.91469 | -74.13623 | 18911 ft | 344 kts | 129° |
| 2026-05-06 12:01 | 40.90201 | -74.10983 | 18900 ft | 336 kts | 130° |
| 2026-05-06 12:01 | 40.88919 | -74.08433 | 18889 ft | 330 kts | 131° |
| 2026-05-06 12:02 | 40.87648 | -74.05914 | 18889 ft | 330 kts | 131° |
| 2026-05-06 12:02 | 40.86385 | -74.03370 | 18880 ft | 332 kts | 130° |
| 2026-05-06 12:02 | 40.85133 | -74.00803 | 18891 ft | 333 kts | 130° |
| 2026-05-06 12:02 | 40.83878 | -73.98214 | 18763 ft | 339 kts | 129° |
| 2026-05-06 12:03 | 40.82571 | -73.95547 | 18099 ft | 351 kts | 129° |
| 2026-05-06 12:03 | 40.81228 | -73.92811 | 17329 ft | 359 kts | 129° |
| 2026-05-06 12:03 | 40.79888 | -73.90068 | 16597 ft | 364 kts | 129° |
| 2026-05-06 12:03 | 40.78528 | -73.87249 | 15867 ft | 365 kts | 126° |
| 2026-05-06 12:04 | 40.77690 | -73.84045 | 15130 ft | 379 kts | 101° |
| 2026-05-06 12:04 | 40.77913 | -73.80558 | 14431 ft | 388 kts | 75° |
| 2026-05-06 12:04 | 40.79148 | -73.77424 | 13731 ft | 386 kts | 50° |
| 2026-05-06 12:04 | 40.81052 | -73.74974 | 12985 ft | 379 kts | 39° |
| 2026-05-06 12:05 | 40.83184 | -73.72981 | 12270 ft | 373 kts | 30° |
| 2026-05-06 12:05 | 40.85387 | -73.71214 | 11529 ft | 368 kts | 28° |
| 2026-05-06 12:05 | 40.87591 | -73.69519 | 10915 ft | 361 kts | 27° |
| 2026-05-06 12:05 | 40.89742 | -73.67898 | 10437 ft | 351 kts | 27° |
| 2026-05-06 12:06 | 40.91842 | -73.66331 | 9973 ft | 342 kts | 27° |
| 2026-05-06 12:06 | 40.93885 | -73.64819 | 9562 ft | 331 kts | 27° |
| 2026-05-06 12:06 | 40.95870 | -73.63351 | 9168 ft | 323 kts | 27° |
| 2026-05-06 12:06 | 40.97626 | -73.61573 | 8730 ft | 316 kts | 52° |
| 2026-05-06 12:07 | 40.98580 | -73.59053 | 8326 ft | 300 kts | 84° |
| 2026-05-06 12:07 | 40.98543 | -73.56458 | 7949 ft | 276 kts | 116° |
| 2026-05-06 12:07 | 40.97600 | -73.54433 | 7554 ft | 250 kts | 150° |
| 2026-05-06 12:07 | 40.96090 | -73.53615 | 7198 ft | 228 kts | 186° |
| 2026-05-06 12:08 | 40.94549 | -73.53860 | 6887 ft | 222 kts | 194° |
| 2026-05-06 12:08 | 40.93074 | -73.54416 | 6529 ft | 220 kts | 204° |
| 2026-05-06 12:08 | 40.91649 | -73.55163 | 6176 ft | 220 kts | 205° |
| 2026-05-06 12:08 | 40.90245 | -73.55963 | 5810 ft | 220 kts | 206° |
| 2026-05-06 12:09 | 40.88848 | -73.56783 | 5445 ft | 219 kts | 207° |
| 2026-05-06 12:09 | 40.87462 | -73.57614 | 5085 ft | 218 kts | 207° |
| 2026-05-06 12:09 | 40.86080 | -73.58443 | 4721 ft | 218 kts | 207° |
| 2026-05-06 12:09 | 40.84727 | -73.59325 | 4340 ft | 216 kts | 214° |
| 2026-05-06 12:10 | 40.83490 | -73.60426 | 4007 ft | 213 kts | 216° |
| 2026-05-06 12:10 | 40.82258 | -73.61506 | 3670 ft | 212 kts | 214° |
| 2026-05-06 12:10 | 40.81020 | -73.62542 | 3285 ft | 209 kts | 214° |
| 2026-05-06 12:10 | 40.79801 | -73.63524 | 3083 ft | 200 kts | 214° |
| 2026-05-06 12:11 | 40.78644 | -73.64435 | 3016 ft | 187 kts | 213° |
| 2026-05-06 12:11 | 40.77555 | -73.65289 | 2992 ft | 178 kts | 213° |
| 2026-05-06 12:11 | 40.76492 | -73.66089 | 2776 ft | 173 kts | 213° |
| 2026-05-06 12:11 | 40.75464 | -73.66893 | 2486 ft | 170 kts | 214° |
| 2026-05-06 12:12 | 40.74477 | -73.67669 | 2321 ft | 155 kts | 214° |
| 2026-05-06 12:12 | 40.73601 | -73.68354 | 2084 ft | 139 kts | 214° |
| 2026-05-06 12:12 | 40.72796 | -73.68983 | 1917 ft | 128 kts | 216° |
| 2026-05-06 12:12 | 40.72065 | -73.69562 | 1759 ft | 121 kts | 216° |
| 2026-05-06 12:13 | 40.71357 | -73.70132 | 1624 ft | 118 kts | 216° |
| 2026-05-06 12:13 | 40.70648 | -73.70698 | 1461 ft | 121 kts | 215° |
| 2026-05-06 12:13 | 40.69922 | -73.71280 | 1283 ft | 122 kts | 213° |
| 2026-05-06 12:13 | 40.69211 | -73.71839 | 1129 ft | 118 kts | 212° |
| 2026-05-06 12:14 | 40.68489 | -73.72388 | 959 ft | 124 kts | 211° |
| 2026-05-06 12:14 | 40.67730 | -73.72977 | 817 ft | 129 kts | 211° |
| 2026-05-06 12:14 | 40.66961 | -73.73612 | 654 ft | 131 kts | 210° |
| 2026-05-06 12:14 | 40.66174 | -73.74228 | 480 ft | 132 kts | 209° |
| 2026-05-06 12:15 | 40.65369 | -73.74840 | 304 ft | 136 kts | 207° |
| 2026-05-06 12:15 | 40.64529 | -73.75474 | 94 ft | 141 kts | 209° |
| 2026-05-06 12:15 | 40.63748 | -73.76087 | 19 ft | 112 kts | 211° |
| 2026-05-06 12:15 | 40.63243 | -73.76488 | 22 ft | 63 kts | 211° |
| 2026-05-06 12:16 | 40.63034 | -73.76679 | 18 ft | 25 kts | 230° |
| 2026-05-06 12:16 | 40.62949 | -73.76841 | 19 ft | 21 kts | 241° |
| 2026-05-06 12:16 | 40.62931 | -73.76978 | 20 ft | 12 kts | 289° |
| 2026-05-06 12:16 | 40.62970 | -73.77065 | 22 ft | 11 kts | 302° |
| 2026-05-06 12:17 | 40.63007 | -73.77142 | 25 ft | 9 kts | 301° |
| 2026-05-06 12:17 | 40.63035 | -73.77203 | 25 ft | 7 kts | 300° |
| 2026-05-06 12:17 | 40.63060 | -73.77260 | 26 ft | 7 kts | 300° |
| 2026-05-06 12:17 | 40.63087 | -73.77320 | 26 ft | 8 kts | 301° |
| 2026-05-06 12:18 | 40.63116 | -73.77385 | 26 ft | 8 kts | 301° |
| 2026-05-06 12:18 | 40.63145 | -73.77447 | 27 ft | 8 kts | 301° |
| 2026-05-06 12:18 | 40.63169 | -73.77499 | 28 ft | 7 kts | 301° |
| 2026-05-06 12:18 | 40.63197 | -73.77562 | 28 ft | 9 kts | 301° |
| 2026-05-06 12:19 | 40.63216 | -73.77603 | 27 ft | 0 kts | 301° |
| 2026-05-06 12:20 | 40.63228 | -73.77630 | 26 ft | 8 kts | 301° |
| 2026-05-06 12:21 | 40.63267 | -73.77716 | 25 ft | 13 kts | 301° |
| 2026-05-06 12:21 | 40.63314 | -73.77818 | 27 ft | 14 kts | 301° |
| 2026-05-06 12:21 | 40.63361 | -73.77918 | 24 ft | 10 kts | 316° |
| 2026-05-06 12:21 | 40.63398 | -73.77915 | 22 ft | 6 kts | 31° |
| 2026-05-06 12:22 | 40.63436 | -73.77886 | 23 ft | 8 kts | 31° |
| 2026-05-06 12:22 | 40.63491 | -73.77842 | 22 ft | 12 kts | 31° |
| 2026-05-06 12:22 | 40.63575 | -73.77776 | 20 ft | 17 kts | 32° |
| 2026-05-06 12:22 | 40.63679 | -73.77693 | 18 ft | 18 kts | 31° |
| 2026-05-06 12:23 | 40.63755 | -73.77652 | 21 ft | 6 kts | 329° |
| 2026-05-06 12:23 | 40.63775 | -73.77681 | 20 ft | 2 kts | 310° |
| 2026-05-06 12:23 | 40.63792 | -73.77703 | 21 ft | 6 kts | 321° |
| 2026-05-06 12:23 | 40.63841 | -73.77747 | 21 ft | 12 kts | 325° |
| 2026-05-06 12:24 | 40.63912 | -73.77811 | 21 ft | 12 kts | 326° |
| 2026-05-06 12:24 | 40.63942 | -73.77834 | 23 ft | 2 kts | 348° |
| 2026-05-06 12:24 | 40.63957 | -73.77843 | 25 ft | 4 kts | 330° |
| 2026-05-06 12:24 | 40.63991 | -73.77869 | 21 ft | 7 kts | 329° |
| 2026-05-06 12:25 | 40.64042 | -73.77876 | 23 ft | 9 kts | 26° |
| 2026-05-06 12:25 | 40.64078 | -73.77807 | 21 ft | 4 kts | 60° |
| 2026-05-06 12:25 | 40.64093 | -73.77796 | 22 ft | 3 kts | 2° |
| 2026-05-06 12:25 | 40.64112 | -73.77804 | 21 ft | 1 kts | 336° |
| 2026-05-06 12:26 | 40.64116 | -73.77807 | 21 ft | 0 kts | 336° |